sensor_id;sensor_type;location;lat;lon;timestamp;pressure;altitude;pressure_sealevel;temperature;humidity
68197;BME280;55019;49.382;11.358;2023-02-19T00:01:10;96930.19;;;7.27;100.00
68197;BME280;55019;49.382;11.358;2023-02-19T00:03:37;96919.91;;;7.27;100.00
68197;BME280;55019;49.382;11.358;2023-02-19T00:06:07;96914.22;;;7.14;100.00
68197;BME280;55019;49.382;11.358;2023-02-19T00:08:34;96924.13;;;7.18;100.00
68197;BME280;55019;49.382;11.358;2023-02-19T00:11:05;96927.22;;;7.22;100.00
68197;BME280;55019;49.382;11.358;2023-02-19T00:13:35;96912.06;;;7.19;100.00
68197;BME280;55019;49.382;11.358;2023-02-19T00:16:13;96925.06;;;7.17;100.00
68197;BME280;55019;49.382;11.358;2023-02-19T00:18:39;96908.53;;;7.10;100.00
68197;BME280;55019;49.382;11.358;2023-02-19T00:21:05;96918.41;;;7.06;100.00
68197;BME280;55019;49.382;11.358;2023-02-19T00:23:31;96916.66;;;7.06;100.00
68197;BME280;55019;49.382;11.358;2023-02-19T00:25:56;96903.41;;;7.01;100.00
68197;BME280;55019;49.382;11.358;2023-02-19T00:28:25;96911.78;;;7.03;100.00
68197;BME280;55019;49.382;11.358;2023-02-19T00:30:51;96906.94;;;7.00;100.00
68197;BME280;55019;49.382;11.358;2023-02-19T00:33:17;96922.59;;;7.07;100.00
68197;BME280;55019;49.382;11.358;2023-02-19T00:35:42;96918.28;;;7.07;100.00
68197;BME280;55019;49.382;11.358;2023-02-19T00:38:08;96914.78;;;7.08;100.00
68197;BME280;55019;49.382;11.358;2023-02-19T00:40:33;96905.97;;;7.10;100.00
68197;BME280;55019;49.382;11.358;2023-02-19T00:42:59;96899.91;;;7.02;100.00
68197;BME280;55019;49.382;11.358;2023-02-19T00:45:24;96916.66;;;7.06;100.00
68197;BME280;55019;49.382;11.358;2023-02-19T00:47:49;96915.56;;;7.08;100.00
68197;BME280;55019;49.382;11.358;2023-02-19T00:50:15;96918.28;;;7.07;100.00
68197;BME280;55019;49.382;11.358;2023-02-19T00:52:40;96896.25;;;6.95;100.00
68197;BME280;55019;49.382;11.358;2023-02-19T00:55:06;96917.19;;;7.09;100.00
68197;BME280;55019;49.382;11.358;2023-02-19T00:57:31;96899.06;;;6.92;100.00
68197;BME280;55019;49.382;11.358;2023-02-19T00:59:57;96898.81;;;6.95;100.00
68197;BME280;55019;49.382;11.358;2023-02-19T01:02:22;96894.22;;;6.89;100.00
68197;BME280;55019;49.382;11.358;2023-02-19T01:04:48;96898.63;;;6.87;100.00
68197;BME280;55019;49.382;11.358;2023-02-19T01:07:13;96894.84;;;6.82;100.00
68197;BME280;55019;49.382;11.358;2023-02-19T01:09:38;96882.13;;;6.80;100.00
68197;BME280;55019;49.382;11.358;2023-02-19T01:12:04;96895.13;;;6.79;100.00
68197;BME280;55019;49.382;11.358;2023-02-19T01:14:30;96886.06;;;6.75;100.00
68197;BME280;55019;49.382;11.358;2023-02-19T01:16:56;96887.28;;;6.71;100.00
68197;BME280;55019;49.382;11.358;2023-02-19T01:19:21;96873.59;;;6.70;100.00
68197;BME280;55019;49.382;11.358;2023-02-19T01:21:46;96853.63;;;6.74;100.00
68197;BME280;55019;49.382;11.358;2023-02-19T01:24:12;96872.25;;;6.66;100.00
68197;BME280;55019;49.382;11.358;2023-02-19T01:26:37;96866.31;;;6.66;100.00
68197;BME280;55019;49.382;11.358;2023-02-19T01:29:03;96852.25;;;6.60;100.00
68197;BME280;55019;49.382;11.358;2023-02-19T01:31:29;96875.34;;;6.60;100.00
68197;BME280;55019;49.382;11.358;2023-02-19T01:33:58;96874.97;;;6.65;100.00
68197;BME280;55019;49.382;11.358;2023-02-19T01:36:25;96851.41;;;6.60;100.00
68197;BME280;55019;49.382;11.358;2023-02-19T01:38:50;96853.59;;;6.64;100.00
68197;BME280;55019;49.382;11.358;2023-02-19T01:41:18;96859.94;;;6.60;100.00
68197;BME280;55019;49.382;11.358;2023-02-19T01:44:07;96859.25;;;6.58;100.00
68197;BME280;55019;49.382;11.358;2023-02-19T01:46:34;96861.69;;;6.60;100.00
68197;BME280;55019;49.382;11.358;2023-02-19T01:51:47;96825.06;;;6.58;100.00
68197;BME280;55019;49.382;11.358;2023-02-19T01:54:15;96823.56;;;6.46;100.00
68197;BME280;55019;49.382;11.358;2023-02-19T01:56:43;96826.41;;;6.52;100.00
68197;BME280;55019;49.382;11.358;2023-02-19T01:59:09;96816.16;;;6.52;100.00
68197;BME280;55019;49.382;11.358;2023-02-19T02:04:17;96818.69;;;6.43;100.00
68197;BME280;55019;49.382;11.358;2023-02-19T02:06:49;96822.75;;;6.45;100.00
68197;BME280;55019;49.382;11.358;2023-02-19T02:09:17;96812.50;;;6.45;100.00
68197;BME280;55019;49.382;11.358;2023-02-19T02:12:02;96807.38;;;6.45;100.00
68197;BME280;55019;49.382;11.358;2023-02-19T02:14:30;96807.63;;;6.42;100.00
68197;BME280;55019;49.382;11.358;2023-02-19T02:17:23;96811.41;;;6.48;100.00
68197;BME280;55019;49.382;11.358;2023-02-19T02:25:26;96807.91;;;6.49;100.00
68197;BME280;55019;49.382;11.358;2023-02-19T02:28:27;96806.41;;;6.46;100.00
68197;BME280;55019;49.382;11.358;2023-02-19T02:31:08;96808.16;;;6.46;100.00
68197;BME280;55019;49.382;11.358;2023-02-19T02:36:08;96812.22;;;6.48;100.00
68197;BME280;55019;49.382;11.358;2023-02-19T02:38:37;96800.34;;;6.47;100.00
68197;BME280;55019;49.382;11.358;2023-02-19T02:41:05;96791.53;;;6.50;100.00
68197;BME280;55019;49.382;11.358;2023-02-19T02:43:31;96796.84;;;6.48;100.00
68197;BME280;55019;49.382;11.358;2023-02-19T02:45:56;96789.81;;;6.50;100.00
68197;BME280;55019;49.382;11.358;2023-02-19T02:54:00;96781.16;;;6.51;100.00
68197;BME280;55019;49.382;11.358;2023-02-19T02:56:47;96783.88;;;6.59;100.00
68197;BME280;55019;49.382;11.358;2023-02-19T02:59:17;96780.22;;;6.62;100.00
68197;BME280;55019;49.382;11.358;2023-02-19T03:01:53;96775.63;;;6.65;100.00
68197;BME280;55019;49.382;11.358;2023-02-19T03:05:05;96788.84;;;6.61;100.00
68197;BME280;55019;49.382;11.358;2023-02-19T03:08:07;96771.56;;;6.53;100.00
68197;BME280;55019;49.382;11.358;2023-02-19T03:10:51;96780.91;;;6.54;100.00
68197;BME280;55019;49.382;11.358;2023-02-19T03:13:22;96776.72;;;6.53;100.00
68197;BME280;55019;49.382;11.358;2023-02-19T03:16:14;96771.69;;;6.52;100.00
68197;BME280;55019;49.382;11.358;2023-02-19T03:19:00;96765.75;;;6.51;100.00
68197;BME280;55019;49.382;11.358;2023-02-19T03:22:05;96776.28;;;6.58;100.00
68197;BME280;55019;49.382;11.358;2023-02-19T03:24:36;96761.31;;;6.53;100.00
68197;BME280;55019;49.382;11.358;2023-02-19T03:27:25;96766.03;;;6.58;100.00
68197;BME280;55019;49.382;11.358;2023-02-19T03:29:53;96777.13;;;6.58;100.00
68197;BME280;55019;49.382;11.358;2023-02-19T03:32:28;96769.25;;;6.60;100.00
68197;BME280;55019;49.382;11.358;2023-02-19T03:35:01;96761.44;;;6.61;100.00
68197;BME280;55019;49.382;11.358;2023-02-19T03:37:40;96757.53;;;6.57;100.00
68197;BME280;55019;49.382;11.358;2023-02-19T03:40:08;96759.81;;;6.60;100.00
68197;BME280;55019;49.382;11.358;2023-02-19T03:50:35;96751.72;;;6.65;100.00
68197;BME280;55019;49.382;11.358;2023-02-19T03:53:13;96763.06;;;6.62;100.00
68197;BME280;55019;49.382;11.358;2023-02-19T03:55:50;96760.09;;;6.67;100.00
68197;BME280;55019;49.382;11.358;2023-02-19T04:01:06;96757.94;;;6.62;100.00
68197;BME280;55019;49.382;11.358;2023-02-19T04:06:12;96752.78;;;6.62;100.00
68197;BME280;55019;49.382;11.358;2023-02-19T04:08:40;96753.84;;;6.60;100.00
68197;BME280;55019;49.382;11.358;2023-02-19T04:11:07;96761.16;;;6.64;100.00
68197;BME280;55019;49.382;11.358;2023-02-19T04:13:43;96754.97;;;6.67;100.00
68197;BME280;55019;49.382;11.358;2023-02-19T04:16:15;96755.34;;;6.62;100.00
68197;BME280;55019;49.382;11.358;2023-02-19T04:18:43;96761.72;;;6.58;100.00
68197;BME280;55019;49.382;11.358;2023-02-19T04:21:12;96774.84;;;6.65;100.00
68197;BME280;55019;49.382;11.358;2023-02-19T04:23:42;96778.19;;;6.65;100.00
68197;BME280;55019;49.382;11.358;2023-02-19T04:26:09;96779.41;;;6.61;100.00
68197;BME280;55019;49.382;11.358;2023-02-19T04:28:36;96777.25;;;6.66;100.00
68197;BME280;55019;49.382;11.358;2023-02-19T04:31:02;96780.34;;;6.60;100.00
68197;BME280;55019;49.382;11.358;2023-02-19T04:33:27;96788.72;;;6.62;100.00
68197;BME280;55019;49.382;11.358;2023-02-19T04:35:53;96782.25;;;6.68;100.00
68197;BME280;55019;49.382;11.358;2023-02-19T04:38:18;96773.59;;;6.59;100.00
68197;BME280;55019;49.382;11.358;2023-02-19T04:40:44;96777.78;;;6.60;100.00
68197;BME280;55019;49.382;11.358;2023-02-19T04:43:09;96781.00;;;6.53;100.00
68197;BME280;55019;49.382;11.358;2023-02-19T04:45:38;96776.28;;;6.58;100.00
68197;BME280;55019;49.382;11.358;2023-02-19T04:48:04;96773.03;;;6.56;100.00
68197;BME280;55019;49.382;11.358;2023-02-19T04:50:29;96782.94;;;6.60;100.00
68197;BME280;55019;49.382;11.358;2023-02-19T04:52:55;96777.38;;;6.55;100.00
68197;BME280;55019;49.382;11.358;2023-02-19T04:55:20;96773.03;;;6.56;100.00
68197;BME280;55019;49.382;11.358;2023-02-19T04:57:46;96773.19;;;6.54;100.00
68197;BME280;55019;49.382;11.358;2023-02-19T05:00:12;96783.31;;;6.56;100.00
68197;BME280;55019;49.382;11.358;2023-02-19T05:02:37;96777.50;;;6.54;100.00
68197;BME280;55019;49.382;11.358;2023-02-19T05:05:03;96787.13;;;6.61;100.00
68197;BME280;55019;49.382;11.358;2023-02-19T05:07:28;96787.91;;;6.52;100.00
68197;BME280;55019;49.382;11.358;2023-02-19T05:09:54;96797.91;;;6.55;100.00
68197;BME280;55019;49.382;11.358;2023-02-19T05:12:19;96794.69;;;6.53;100.00
68197;BME280;55019;49.382;11.358;2023-02-19T05:14:45;96798.31;;;6.60;100.00
68197;BME280;55019;49.382;11.358;2023-02-19T05:17:10;96787.13;;;6.61;100.00
68197;BME280;55019;49.382;11.358;2023-02-19T05:19:36;96785.09;;;6.65;100.00
68197;BME280;55019;49.382;11.358;2023-02-19T05:22:01;96791.31;;;6.62;100.00
68197;BME280;55019;49.382;11.358;2023-02-19T05:24:26;96787.22;;;6.60;100.00
68197;BME280;55019;49.382;11.358;2023-02-19T05:26:52;96788.84;;;6.61;100.00
68197;BME280;55019;49.382;11.358;2023-02-19T05:29:17;96791.56;;;6.59;100.00
68197;BME280;55019;49.382;11.358;2023-02-19T05:31:43;96790.34;;;6.63;100.00
68197;BME280;55019;49.382;11.358;2023-02-19T05:34:08;96785.50;;;6.60;100.00
68197;BME280;55019;49.382;11.358;2023-02-19T05:36:34;96786.72;;;6.56;100.00
68197;BME280;55019;49.382;11.358;2023-02-19T05:39:01;96781.97;;;6.61;100.00
68197;BME280;55019;49.382;11.358;2023-02-19T05:41:28;96790.34;;;6.63;100.00
68197;BME280;55019;49.382;11.358;2023-02-19T05:43:54;96789.81;;;6.69;100.00
68197;BME280;55019;49.382;11.358;2023-02-19T05:46:23;96792.25;;;6.61;100.00
68197;BME280;55019;49.382;11.358;2023-02-19T05:48:50;96790.09;;;6.66;100.00
68197;BME280;55019;49.382;11.358;2023-02-19T05:51:17;96792.09;;;6.63;100.00
68197;BME280;55019;49.382;11.358;2023-02-19T05:53:43;96797.13;;;6.64;100.00
68197;BME280;55019;49.382;11.358;2023-02-19T05:58:52;96801.44;;;6.64;100.00
68197;BME280;55019;49.382;11.358;2023-02-19T06:01:20;96795.50;;;6.63;100.00
68197;BME280;55019;49.382;11.358;2023-02-19T06:03:45;96797.13;;;6.64;100.00
68197;BME280;55019;49.382;11.358;2023-02-19T06:06:15;96808.88;;;6.67;100.00
68197;BME280;55019;49.382;11.358;2023-02-19T06:08:41;96800.34;;;6.66;100.00
68197;BME280;55019;49.382;11.358;2023-02-19T06:11:07;96803.75;;;6.67;100.00
68197;BME280;55019;49.382;11.358;2023-02-19T06:13:32;96812.78;;;6.61;100.00
68197;BME280;55019;49.382;11.358;2023-02-19T06:15:57;96826.97;;;6.65;100.00
68197;BME280;55019;49.382;11.358;2023-02-19T06:18:23;96825.25;;;6.66;100.00
68197;BME280;55019;49.382;11.358;2023-02-19T06:20:48;96820.91;;;6.66;100.00
68197;BME280;55019;49.382;11.358;2023-02-19T06:23:13;96821.16;;;6.63;100.00
68197;BME280;55019;49.382;11.358;2023-02-19T06:25:40;96811.97;;;6.70;100.00
68197;BME280;55019;49.382;11.358;2023-02-19T06:28:05;96819.94;;;6.67;100.00
68197;BME280;55019;49.382;11.358;2023-02-19T06:30:30;96822.22;;;6.61;100.00
68197;BME280;55019;49.382;11.358;2023-02-19T06:32:56;96814.94;;;6.56;100.00
68197;BME280;55019;49.382;11.358;2023-02-19T06:35:21;96813.84;;;6.49;100.00
68197;BME280;55019;49.382;11.358;2023-02-19T06:37:47;96826.41;;;6.43;100.00
68197;BME280;55019;49.382;11.358;2023-02-19T06:40:13;96830.06;;;6.40;100.00
68197;BME280;55019;49.382;11.358;2023-02-19T06:42:38;96829.78;;;6.43;100.00
68197;BME280;55019;49.382;11.358;2023-02-19T06:45:04;96837.75;;;6.40;100.00
68197;BME280;55019;49.382;11.358;2023-02-19T06:47:31;96842.63;;;6.43;100.00
68197;BME280;55019;49.382;11.358;2023-02-19T06:49:57;96853.81;;;6.42;100.00
68197;BME280;55019;49.382;11.358;2023-02-19T06:52:22;96852.63;;;6.46;100.00
68197;BME280;55019;49.382;11.358;2023-02-19T06:54:47;96846.53;;;6.47;100.00
68197;BME280;55019;49.382;11.358;2023-02-19T06:57:13;96852.75;;;6.45;100.00
68197;BME280;55019;49.382;11.358;2023-02-19T06:59:38;96849.38;;;6.44;100.00
68197;BME280;55019;49.382;11.358;2023-02-19T07:02:04;96854.50;;;6.44;100.00
68197;BME280;55019;49.382;11.358;2023-02-19T07:04:29;96865.56;;;6.45;100.00
68197;BME280;55019;49.382;11.358;2023-02-19T07:06:54;96861.00;;;6.48;100.00
68197;BME280;55019;49.382;11.358;2023-02-19T07:09:20;96864.88;;;6.43;100.00
68197;BME280;55019;49.382;11.358;2023-02-19T07:11:46;96872.88;;;6.49;100.00
68197;BME280;55019;49.382;11.358;2023-02-19T07:14:15;96876.25;;;6.50;100.00
68197;BME280;55019;49.382;11.358;2023-02-19T07:16:41;96873.84;;;6.48;100.00
68197;BME280;55019;49.382;11.358;2023-02-19T07:19:09;96871.66;;;6.44;100.00
68197;BME280;55019;49.382;11.358;2023-02-19T07:21:35;96866.66;;;6.42;100.00
68197;BME280;55019;49.382;11.358;2023-02-19T07:24:02;96874.63;;;6.49;100.00
68197;BME280;55019;49.382;11.358;2023-02-19T07:26:30;96870.59;;;6.46;100.00
68197;BME280;55019;49.382;11.358;2023-02-19T07:28:55;96872.47;;;6.54;100.00
68197;BME280;55019;49.382;11.358;2023-02-19T07:31:22;96873.72;;;6.59;100.00
68197;BME280;55019;49.382;11.358;2023-02-19T07:33:48;96869.84;;;6.65;100.00
68197;BME280;55019;49.382;11.358;2023-02-19T07:36:14;96881.16;;;6.62;100.00
68197;BME280;55019;49.382;11.358;2023-02-19T07:38:41;96886.59;;;6.69;100.00
68197;BME280;55019;49.382;11.358;2023-02-19T07:41:06;96887.91;;;6.63;100.00
68197;BME280;55019;49.382;11.358;2023-02-19T07:43:34;96888.47;;;6.67;100.00
68197;BME280;55019;49.382;11.358;2023-02-19T07:46:11;96873.34;;;6.64;100.00
68197;BME280;55019;49.382;11.358;2023-02-19T07:48:37;96886.44;;;6.70;100.00
68197;BME280;55019;49.382;11.358;2023-02-19T07:51:05;96886.72;;;6.86;100.00
68197;BME280;55019;49.382;11.358;2023-02-19T07:53:32;96892.16;;;6.93;100.00
68197;BME280;55019;49.382;11.358;2023-02-19T07:55:59;96895.84;;;7.09;100.00
68197;BME280;55019;49.382;11.358;2023-02-19T07:58:26;96897.19;;;7.41;100.00
68197;BME280;55019;49.382;11.358;2023-02-19T08:00:51;96907.75;;;7.48;100.00
68197;BME280;55019;49.382;11.358;2023-02-19T08:03:17;96900.59;;;7.42;100.00
68197;BME280;55019;49.382;11.358;2023-02-19T08:05:42;96894.50;;;7.24;99.64
68197;BME280;55019;49.382;11.358;2023-02-19T08:08:11;96898.53;;;7.17;99.94
68197;BME280;55019;49.382;11.358;2023-02-19T08:10:37;96898.53;;;7.17;100.00
68197;BME280;55019;49.382;11.358;2023-02-19T08:13:22;96904.38;;;7.19;99.49
68197;BME280;55019;49.382;11.358;2023-02-19T08:18:30;96910.19;;;7.21;99.53
68197;BME280;55019;49.382;11.358;2023-02-19T08:20:57;96917.47;;;7.16;98.88
68197;BME280;55019;49.382;11.358;2023-02-19T08:23:23;96912.06;;;7.19;99.62
68197;BME280;55019;49.382;11.358;2023-02-19T08:25:50;96926.94;;;7.25;98.14
68197;BME280;55019;49.382;11.358;2023-02-19T08:28:16;96921.53;;;7.28;99.37
68197;BME280;55019;49.382;11.358;2023-02-19T08:30:44;96922.63;;;7.35;98.13
68197;BME280;55019;49.382;11.358;2023-02-19T08:33:12;96942.13;;;7.47;97.77
68197;BME280;55019;49.382;11.358;2023-02-19T08:35:37;96926.81;;;7.45;97.09
68197;BME280;55019;49.382;11.358;2023-02-19T08:38:05;96933.47;;;7.38;97.37
68197;BME280;55019;49.382;11.358;2023-02-19T08:40:30;96934.00;;;7.32;97.67
68197;BME280;55019;49.382;11.358;2023-02-19T08:45:53;96947.53;;;7.34;97.71
68197;BME280;55019;49.382;11.358;2023-02-19T08:48:19;96942.50;;;7.33;97.43
68197;BME280;55019;49.382;11.358;2023-02-19T08:50:44;96942.91;;;7.38;97.70
68197;BME280;55019;49.382;11.358;2023-02-19T08:53:09;96934.78;;;7.33;96.75
68197;BME280;55019;49.382;11.358;2023-02-19T08:55:36;96956.97;;;7.34;96.86
68197;BME280;55019;49.382;11.358;2023-02-19T08:58:02;96948.75;;;7.40;98.14
68197;BME280;55019;49.382;11.358;2023-02-19T09:00:27;96958.22;;;7.39;96.83
68197;BME280;55019;49.382;11.358;2023-02-19T09:02:53;96959.28;;;7.37;96.68
68197;BME280;55019;49.382;11.358;2023-02-19T09:05:18;96963.25;;;7.41;96.83
68197;BME280;55019;49.382;11.358;2023-02-19T09:07:44;96964.88;;;7.42;95.58
68197;BME280;55019;49.382;11.358;2023-02-19T09:10:11;96973.09;;;7.45;95.85
68197;BME280;55019;49.382;11.358;2023-02-19T09:12:37;96967.41;;;7.51;96.06
68197;BME280;55019;49.382;11.358;2023-02-19T09:15:03;96976.09;;;7.50;95.31
68197;BME280;55019;49.382;11.358;2023-02-19T09:17:29;96970.25;;;7.48;95.05
68197;BME280;55019;49.382;11.358;2023-02-19T09:19:54;96973.66;;;7.49;95.25
68197;BME280;55019;49.382;11.358;2023-02-19T09:22:20;96985.69;;;7.48;95.71
68197;BME280;55019;49.382;11.358;2023-02-19T09:24:45;96985.84;;;7.47;95.86
68197;BME280;55019;49.382;11.358;2023-02-19T09:27:16;96990.44;;;7.53;95.74
68197;BME280;55019;49.382;11.358;2023-02-19T09:29:41;96995.31;;;7.65;94.90
68197;BME280;55019;49.382;11.358;2023-02-19T09:32:07;96995.72;;;7.70;94.80
68197;BME280;55019;49.382;11.358;2023-02-19T09:34:32;96993.28;;;7.69;94.75
68197;BME280;55019;49.382;11.358;2023-02-19T09:36:57;97000.03;;;7.70;93.21
68197;BME280;55019;49.382;11.358;2023-02-19T09:39:23;96993.28;;;7.69;93.91
68197;BME280;55019;49.382;11.358;2023-02-19T09:41:52;97010.34;;;7.70;94.40
68197;BME280;55019;49.382;11.358;2023-02-19T09:44:38;97012.91;;;7.79;93.92
68197;BME280;55019;49.382;11.358;2023-02-19T09:47:25;97015.47;;;7.89;94.21
68197;BME280;55019;49.382;11.358;2023-02-19T09:49:53;97022.00;;;7.83;93.76
68197;BME280;55019;49.382;11.358;2023-02-19T09:54:49;97017.91;;;7.81;93.45
68197;BME280;55019;49.382;11.358;2023-02-19T09:57:20;97024.13;;;7.69;92.63
68197;BME280;55019;49.382;11.358;2023-02-19T09:59:50;97025.63;;;7.62;93.53
68197;BME280;55019;49.382;11.358;2023-02-19T10:02:19;97025.25;;;7.66;93.30
68197;BME280;55019;49.382;11.358;2023-02-19T10:04:47;97017.75;;;7.63;93.51
68197;BME280;55019;49.382;11.358;2023-02-19T10:07:14;97026.03;;;7.67;93.22
68197;BME280;55019;49.382;11.358;2023-02-19T10:09:44;97019.28;;;7.66;92.63
68197;BME280;55019;49.382;11.358;2023-02-19T10:12:14;97022.25;;;7.71;93.39
68197;BME280;55019;49.382;11.358;2023-02-19T10:14:44;97027.94;;;7.74;92.96
68197;BME280;55019;49.382;11.358;2023-02-19T10:17:21;97023.19;;;7.60;93.89
68197;BME280;55019;49.382;11.358;2023-02-19T10:19:49;97023.06;;;7.62;94.30
68197;BME280;55019;49.382;11.358;2023-02-19T10:22:14;97011.41;;;7.58;94.45
68197;BME280;55019;49.382;11.358;2023-02-19T10:24:40;97031.72;;;7.61;94.96
68197;BME280;55019;49.382;11.358;2023-02-19T10:27:14;97018.84;;;7.61;94.25
68197;BME280;55019;49.382;11.358;2023-02-19T10:29:42;97029.81;;;7.63;95.45
68197;BME280;55019;49.382;11.358;2023-02-19T10:35:06;97048.22;;;7.68;95.85
68197;BME280;55019;49.382;11.358;2023-02-19T10:37:33;97045.41;;;7.71;95.40
68197;BME280;55019;49.382;11.358;2023-02-19T10:39:59;97046.34;;;7.70;94.57
68197;BME280;55019;49.382;11.358;2023-02-19T10:42:25;97043.78;;;7.70;94.95
68197;BME280;55019;49.382;11.358;2023-02-19T10:44:56;97049.06;;;7.68;95.88
68197;BME280;55019;49.382;11.358;2023-02-19T10:47:26;97056.63;;;7.70;95.36
68197;BME280;55019;49.382;11.358;2023-02-19T10:49:56;97055.41;;;7.74;95.76
68197;BME280;55019;49.382;11.358;2023-02-19T10:52:29;97045.28;;;7.72;94.52
68197;BME280;55019;49.382;11.358;2023-02-19T10:55:27;97051.25;;;7.92;93.89
68197;BME280;55019;49.382;11.358;2023-02-19T10:57:54;97050.69;;;7.88;93.93
68197;BME280;55019;49.382;11.358;2023-02-19T11:00:27;97059.22;;;7.89;93.88
68197;BME280;55019;49.382;11.358;2023-02-19T11:03:18;97064.47;;;7.78;93.41
68197;BME280;55019;49.382;11.358;2023-02-19T11:05:56;97053.94;;;7.81;94.21
68197;BME280;55019;49.382;11.358;2023-02-19T11:08:24;97068.94;;;7.76;94.05
68197;BME280;55019;49.382;11.358;2023-02-19T11:10:49;97065.28;;;7.69;94.97
68197;BME280;55019;49.382;11.358;2023-02-19T11:13:19;97066.91;;;7.60;96.86
68197;BME280;55019;49.382;11.358;2023-02-19T11:15:52;97067.31;;;7.56;97.39
68197;BME280;55019;49.382;11.358;2023-02-19T11:18:26;97072.88;;;7.61;99.19
68197;BME280;55019;49.382;11.358;2023-02-19T11:20:56;97074.72;;;7.40;100.00
68197;BME280;55019;49.382;11.358;2023-02-19T11:23:28;97074.47;;;7.43;100.00
68197;BME280;55019;49.382;11.358;2023-02-19T11:25:56;97074.44;;;7.33;100.00
68197;BME280;55019;49.382;11.358;2023-02-19T11:28:34;97075.06;;;7.26;100.00
68197;BME280;55019;49.382;11.358;2023-02-19T11:31:23;97077.91;;;7.23;100.00
68197;BME280;55019;49.382;11.358;2023-02-19T11:36:29;97075.59;;;7.20;100.00
68197;BME280;55019;49.382;11.358;2023-02-19T11:38:57;97082.09;;;7.24;100.00
68197;BME280;55019;49.382;11.358;2023-02-19T11:44:37;97091.97;;;7.19;100.00
68197;BME280;55019;49.382;11.358;2023-02-19T11:50:32;97101.66;;;7.06;100.00
68197;BME280;55019;49.382;11.358;2023-02-19T11:53:26;97098.56;;;7.12;100.00
68197;BME280;55019;49.382;11.358;2023-02-19T11:56:17;97110.84;;;7.08;100.00
68197;BME280;55019;49.382;11.358;2023-02-19T12:15:53;97108.94;;;7.01;100.00
68197;BME280;55019;49.382;11.358;2023-02-19T12:18:43;97127.19;;;6.98;100.00
68197;BME280;55019;49.382;11.358;2023-02-19T12:35:26;97129.91;;;7.06;100.00
68197;BME280;55019;49.382;11.358;2023-02-19T12:38:20;97118.22;;;7.22;100.00
68197;BME280;55019;49.382;11.358;2023-02-19T12:43:28;97110.94;;;7.76;100.00
68197;BME280;55019;49.382;11.358;2023-02-19T12:51:18;97105.81;;;8.05;100.00
68197;BME280;55019;49.382;11.358;2023-02-19T12:53:47;97113.66;;;7.94;100.00
68197;BME280;55019;49.382;11.358;2023-02-19T13:02:47;97112.25;;;7.71;100.00
68197;BME280;55019;49.382;11.358;2023-02-19T13:05:20;97115.13;;;7.77;100.00
68197;BME280;55019;49.382;11.358;2023-02-19T13:08:01;97116.25;;;7.94;100.00
68197;BME280;55019;49.382;11.358;2023-02-19T13:12:56;97111.91;;;8.04;100.00
68197;BME280;55019;49.382;11.358;2023-02-19T13:15:32;97100.13;;;8.01;100.00
68197;BME280;55019;49.382;11.358;2023-02-19T13:18:00;97095.22;;;7.89;100.00
68197;BME280;55019;49.382;11.358;2023-02-19T13:20:35;97086.84;;;7.77;100.00
68197;BME280;55019;49.382;11.358;2023-02-19T13:23:30;97091.97;;;7.68;100.00
68197;BME280;55019;49.382;11.358;2023-02-19T13:31:54;97112.91;;;7.63;100.00
68197;BME280;55019;49.382;11.358;2023-02-19T13:36:50;97101.03;;;7.72;100.00
68197;BME280;55019;49.382;11.358;2023-02-19T13:39:18;97103.47;;;7.64;100.00
68197;BME280;55019;49.382;11.358;2023-02-19T13:41:50;97099.53;;;7.60;100.00
68197;BME280;55019;49.382;11.358;2023-02-19T13:44:26;97108.31;;;7.57;100.00
68197;BME280;55019;49.382;11.358;2023-02-19T13:46:52;97097.72;;;7.41;100.00
68197;BME280;55019;49.382;11.358;2023-02-19T13:49:38;97100.59;;;7.48;100.00
68197;BME280;55019;49.382;11.358;2023-02-19T13:52:46;97100.44;;;7.40;100.00
68197;BME280;55019;49.382;11.358;2023-02-19T13:55:55;97109.16;;;7.28;100.00
68197;BME280;55019;49.382;11.358;2023-02-19T13:58:34;97123.38;;;7.32;100.00
68197;BME280;55019;49.382;11.358;2023-02-19T14:01:04;97125.56;;;7.36;100.00
68197;BME280;55019;49.382;11.358;2023-02-19T14:04:07;97124.97;;;7.63;100.00
68197;BME280;55019;49.382;11.358;2023-02-19T14:14:36;97142.31;;;8.48;94.37
68197;BME280;55019;49.382;11.358;2023-02-19T14:19:51;97145.72;;;7.90;95.99
68197;BME280;55019;49.382;11.358;2023-02-19T14:25:40;97155.47;;;7.77;97.10
68197;BME280;55019;49.382;11.358;2023-02-19T14:30:51;97166.84;;;7.84;95.75
68197;BME280;55019;49.382;11.358;2023-02-19T14:33:21;97158.59;;;7.80;94.86
68197;BME280;55019;49.382;11.358;2023-02-19T14:35:51;97162.75;;;7.72;95.59
68197;BME280;55019;49.382;11.358;2023-02-19T14:38:24;97164.53;;;7.71;95.63
68197;BME280;55019;49.382;11.358;2023-02-19T14:40:52;97170.59;;;7.61;95.39
68197;BME280;55019;49.382;11.358;2023-02-19T14:43:20;97164.63;;;7.60;94.93
68197;BME280;55019;49.382;11.358;2023-02-19T14:45:50;97172.31;;;7.60;95.10
68197;BME280;55019;49.382;11.358;2023-02-19T14:48:24;97171.94;;;7.65;94.20
68197;BME280;55019;49.382;11.358;2023-02-19T14:50:51;97180.91;;;7.70;94.01
68197;BME280;55019;49.382;11.358;2023-02-19T14:53:19;97192.78;;;7.62;94.57
68197;BME280;55019;49.382;11.358;2023-02-19T14:55:47;97177.34;;;7.62;94.04
68197;BME280;55019;49.382;11.358;2023-02-19T14:58:18;97183.88;;;7.66;94.32
68197;BME280;55019;49.382;11.358;2023-02-19T15:00:45;97188.06;;;7.67;93.90
68197;BME280;55019;49.382;11.358;2023-02-19T15:03:37;97193.03;;;7.59;94.30
68197;BME280;55019;49.382;11.358;2023-02-19T15:06:06;97201.44;;;7.61;93.78
68197;BME280;55019;49.382;11.358;2023-02-19T15:08:39;97189.63;;;7.49;94.38
68197;BME280;55019;49.382;11.358;2023-02-19T15:11:13;97196.47;;;7.39;94.43
68197;BME280;55019;49.382;11.358;2023-02-19T15:13:41;97196.25;;;7.42;94.16
68197;BME280;55019;49.382;11.358;2023-02-19T15:16:16;97202.09;;;7.53;94.23